Shawnee Mission, KS (66212)

1:08 AM CST on January 28, 2015 (GMT -0600)
Glenwood Heights | Change Station
CLOSE
Current Station
Personal Weather Station
Location: Overland Park, KS
Elevation: 1037 ft
Nearby Weather Stations

Elev 1037 ft 38.97 °N, 94.68 °W | Updated 4 seconds ago

Clear
Clear
43.2 °F
Feels Like 42 °F
N
3.1
Wind Variable Wind from SW
Gusts 6.9 mph

Today
High -- | Low -- °F
--% Chance of Precip.
Yesterday
High -- | Low -- °F
Precip. -- in
7:28 AM 5:35 PM
First Quarter, 62% visible
Pressure 30.02 in
Visibility 10.0 miles
Clouds Clear
Windchill 42 °F
Dew Point 31 °F
Humidity 62%
Rainfall 0.00 in
Snow Depth Not available.
UV 0 out of 12
Pollen .50 out of 12
Air Quality Not available.
Flu Activity Not available.
METAR KOJC 280653Z AUTO 14011KT 10SM CLR 06/M01 A3002 RMK AO2 SLP166 T00561011

More Conditions Fewer Conditions

Pressure 30.02 in
Visibility 10.0 miles
Clouds Clear
Windchill 42 °F
Dew Point 31 °F
Humidity 62%
Rainfall 0.00 in
Snow Depth Not available.
UV 0 out of 12
Pollen .50 out of 12
Air Quality Not available.
Flu Activity Not available.
METAR KOJC 280653Z AUTO 14011KT 10SM CLR 06/M01 A3002 RMK AO2 SLP166 T00561011

More Conditions Fewer Conditions

10-Day Weather Forecast

Almanac

Astronomy

Jan. 28, 2015 Rise Set
Actual Time
Civil Twilight
Nautical Twilight
Astronomical Twilight
Moon
Length of Visible Light
Length of Day
Tomorrow will be .
, % of the Moon is Illuminated

Today's Extremes

State Highs State Lows

Community

WunderPhotos

Upload Photos

1,791,118 photos uploaded!

WunderBlogs® & News

Nearby

Air Quality

  Air Quality AQ Index Pollutant
Not available.

Snow Depth

Station Depth Elevation

Earthquake Activity

City Distance Mag. Time & Date
Minimum magnitude displayed is 2.5.

Coastal Water Temperatures

Place Temperature

Nearby Weather Stations